createdAt,value
2023-03-18T00:00:10.173Z,8.36
2023-03-18T00:02:38.220Z,8.30
2023-03-18T00:05:07.619Z,8.26
2023-03-18T00:07:36.228Z,8.21
2023-03-18T00:10:04.868Z,8.17
2023-03-18T00:12:33.225Z,8.15
2023-03-18T00:15:00.008Z,8.19
2023-03-18T00:17:28.047Z,8.19
2023-03-18T00:19:55.273Z,8.20
2023-03-18T00:22:22.737Z,8.18
2023-03-18T00:24:49.406Z,8.16
2023-03-18T00:27:16.195Z,8.14
2023-03-18T00:29:43.003Z,8.15
2023-03-18T00:32:10.000Z,8.17
2023-03-18T00:34:36.760Z,8.15
2023-03-18T00:37:03.724Z,8.17
2023-03-18T00:39:33.082Z,8.05
2023-03-18T00:42:02.031Z,8.32
2023-03-18T00:44:28.859Z,8.24
2023-03-18T00:46:55.686Z,8.19
2023-03-18T00:49:22.402Z,8.17
2023-03-18T00:51:49.111Z,8.17
2023-03-18T00:54:18.730Z,8.20
2023-03-18T00:56:45.560Z,8.25
2023-03-18T00:59:12.268Z,8.27
2023-03-18T01:01:39.314Z,8.31
2023-03-18T01:04:07.132Z,8.28
2023-03-18T01:06:36.009Z,8.24
2023-03-18T01:09:05.256Z,8.20
2023-03-18T01:11:33.418Z,8.17
2023-03-18T01:14:00.740Z,8.17
2023-03-18T01:16:28.461Z,8.21
2023-03-18T01:18:55.206Z,8.18
2023-03-18T01:21:22.579Z,8.15
2023-03-18T01:23:49.377Z,8.14
2023-03-18T01:26:16.860Z,8.19
2023-03-18T01:28:43.501Z,8.21
2023-03-18T01:31:10.648Z,8.19
2023-03-18T01:33:37.376Z,8.15
2023-03-18T01:36:05.134Z,8.10
2023-03-18T01:38:32.381Z,8.13
2023-03-18T01:41:00.932Z,8.21
2023-03-18T01:43:36.304Z,8.23
2023-03-18T01:46:29.153Z,8.19
2023-03-18T01:48:56.905Z,8.23
2023-03-18T01:51:26.668Z,8.34
2023-03-18T01:53:54.650Z,8.42
2023-03-18T01:56:22.206Z,8.42
2023-03-18T01:58:53.606Z,8.43
2023-03-18T02:01:26.510Z,8.40
2023-03-18T02:03:54.219Z,8.41
2023-03-18T02:06:21.009Z,8.50
2023-03-18T02:08:47.960Z,8.52
2023-03-18T02:11:14.987Z,8.48
2023-03-18T02:13:44.533Z,8.50
2023-03-18T02:16:44.346Z,8.54
2023-03-18T02:19:44.903Z,8.57
2023-03-18T02:22:23.965Z,8.61
2023-03-18T02:24:50.713Z,8.54
2023-03-18T02:27:30.276Z,8.46
2023-03-18T02:30:01.566Z,8.49
2023-03-18T02:32:31.193Z,8.58
2023-03-18T02:35:01.298Z,8.62
2023-03-18T02:37:27.990Z,8.61
2023-03-18T02:39:54.665Z,8.61
2023-03-18T02:42:31.929Z,8.57
2023-03-18T02:44:59.741Z,8.59
2023-03-18T02:47:28.921Z,8.61
2023-03-18T02:49:56.742Z,8.61
2023-03-18T02:52:23.537Z,8.61
2023-03-18T02:54:50.227Z,8.59
2023-03-18T02:57:16.848Z,8.55
2023-03-18T02:59:43.528Z,8.54
2023-03-18T03:02:10.780Z,8.47
2023-03-18T03:04:37.638Z,8.48
2023-03-18T03:07:04.401Z,8.49
2023-03-18T03:09:31.238Z,8.54
2023-03-18T03:11:57.896Z,8.60
2023-03-18T03:14:24.569Z,8.62
2023-03-18T03:16:51.931Z,8.66
2023-03-18T03:19:18.664Z,8.76
2023-03-18T03:21:45.302Z,8.71
2023-03-18T03:24:12.062Z,8.71
2023-03-18T03:26:38.714Z,8.73
2023-03-18T03:29:05.677Z,8.76
2023-03-18T03:31:33.010Z,8.77
2023-03-18T03:34:00.120Z,8.82
2023-03-18T03:36:27.269Z,8.98
2023-03-18T03:38:54.135Z,9.00
2023-03-18T03:41:21.020Z,8.98
2023-03-18T03:43:48.010Z,8.98
2023-03-18T03:46:15.556Z,9.00
2023-03-18T03:48:42.529Z,9.00
2023-03-18T03:51:09.377Z,8.98
2023-03-18T03:53:36.287Z,8.98
2023-03-18T03:56:04.537Z,9.16
2023-03-18T03:58:31.299Z,9.12
2023-03-18T04:00:58.404Z,9.11
2023-03-18T04:03:25.664Z,9.13
2023-03-18T04:05:52.676Z,9.13
2023-03-18T04:08:19.662Z,9.15
2023-03-18T04:10:46.951Z,9.20
2023-03-18T04:13:13.940Z,9.21
2023-03-18T04:15:40.894Z,9.63
2023-03-18T04:18:09.094Z,9.55
2023-03-18T04:20:37.645Z,9.50
2023-03-18T04:23:05.356Z,9.46
2023-03-18T04:25:33.330Z,9.75
2023-03-18T04:28:00.141Z,9.63
2023-03-18T04:30:27.568Z,9.63
2023-03-18T04:32:55.058Z,9.60
2023-03-18T04:35:23.439Z,9.54
2023-03-18T04:37:50.313Z,9.51
2023-03-18T04:40:17.919Z,9.51
2023-03-18T04:42:47.612Z,9.49
2023-03-18T04:45:16.091Z,9.75
2023-03-18T04:47:44.455Z,9.77
2023-03-18T04:50:12.591Z,9.67
2023-03-18T04:52:42.892Z,9.63
2023-03-18T04:55:10.974Z,9.66
2023-03-18T04:57:38.781Z,9.63
2023-03-18T05:00:11.999Z,9.61
2023-03-18T05:02:40.066Z,9.61
2023-03-18T05:05:08.213Z,9.62
2023-03-18T05:07:35.085Z,9.62
2023-03-18T05:10:02.033Z,9.56
2023-03-18T05:12:28.803Z,9.55
2023-03-18T05:14:55.895Z,9.44
2023-03-18T05:17:22.557Z,9.42
2023-03-18T05:19:49.427Z,9.40
2023-03-18T05:22:18.276Z,9.37
2023-03-18T05:24:48.740Z,9.34
2023-03-18T05:27:18.482Z,9.23
2023-03-18T05:29:46.083Z,9.18
2023-03-18T05:32:14.792Z,9.19
2023-03-18T05:34:42.509Z,9.20
2023-03-18T05:37:12.281Z,9.22
2023-03-18T05:39:39.826Z,9.22
2023-03-18T05:42:07.319Z,9.13
2023-03-18T05:44:34.880Z,9.11
2023-03-18T05:47:02.721Z,9.14
2023-03-18T05:49:29.452Z,9.14
2023-03-18T05:51:56.339Z,9.10
2023-03-18T05:54:23.511Z,9.09
2023-03-18T05:56:52.588Z,9.00
2023-03-18T05:59:20.054Z,9.03
2023-03-18T06:01:47.040Z,9.04
2023-03-18T06:04:13.799Z,9.06
2023-03-18T06:06:41.164Z,9.06
2023-03-18T06:09:10.843Z,9.05
2023-03-18T06:11:40.153Z,9.10
2023-03-18T06:14:08.203Z,9.11
2023-03-18T06:16:35.405Z,9.14
2023-03-18T06:19:03.462Z,9.21
2023-03-18T06:21:31.704Z,9.34
2023-03-18T06:23:58.785Z,9.44
2023-03-18T06:26:25.666Z,9.40
2023-03-18T06:28:52.662Z,9.41
2023-03-18T06:31:19.622Z,9.56
2023-03-18T06:33:46.609Z,9.57
2023-03-18T06:36:13.477Z,9.60
2023-03-18T06:38:40.393Z,9.58
2023-03-18T06:41:07.279Z,9.63
2023-03-18T06:43:34.000Z,9.69
2023-03-18T06:46:00.919Z,9.97
2023-03-18T06:48:28.957Z,9.95
2023-03-18T06:50:55.806Z,9.95
2023-03-18T06:53:23.003Z,10.04
2023-03-18T06:55:49.990Z,10.07
2023-03-18T06:58:17.490Z,10.07
2023-03-18T07:00:45.534Z,10.21
2023-03-18T07:03:13.462Z,10.24
2023-03-18T07:05:42.198Z,10.20
2023-03-18T07:08:09.349Z,10.28
2023-03-18T07:10:36.231Z,10.39
2023-03-18T07:13:02.922Z,10.34
2023-03-18T07:15:30.578Z,10.31
2023-03-18T07:17:57.288Z,10.33
2023-03-18T07:20:24.225Z,10.27
2023-03-18T07:22:51.631Z,10.31
2023-03-18T07:25:18.367Z,10.40
2023-03-18T07:27:45.694Z,10.39
2023-03-18T07:30:13.737Z,10.41
2023-03-18T07:32:40.429Z,10.50
2023-03-18T07:35:08.074Z,10.58
2023-03-18T07:37:36.050Z,10.64
2023-03-18T07:40:02.901Z,10.62
2023-03-18T07:42:29.537Z,10.69
2023-03-18T07:44:56.348Z,10.75
2023-03-18T07:47:25.019Z,10.86
2023-03-18T07:49:52.119Z,11.01
2023-03-18T07:52:19.301Z,11.21
2023-03-18T07:54:46.028Z,11.27
2023-03-18T07:57:13.093Z,11.45
2023-03-18T07:59:39.879Z,11.52
2023-03-18T08:02:08.246Z,11.66
2023-03-18T08:04:35.674Z,11.71
2023-03-18T08:07:03.219Z,11.52
2023-03-18T08:09:29.883Z,11.54
2023-03-18T08:11:56.703Z,11.44
2023-03-18T08:14:23.511Z,11.43
2023-03-18T08:16:50.350Z,11.42
2023-03-18T08:19:17.302Z,11.41
2023-03-18T08:21:44.205Z,11.48
2023-03-18T08:24:11.231Z,11.49
2023-03-18T08:26:38.213Z,11.40
2023-03-18T08:29:04.890Z,11.32
2023-03-18T08:31:31.911Z,11.24
2023-03-18T08:34:00.541Z,11.38
2023-03-18T08:36:28.905Z,11.39
2023-03-18T08:38:56.599Z,11.48
2023-03-18T08:41:25.768Z,11.60
2023-03-18T08:43:53.230Z,11.66
2023-03-18T08:46:20.182Z,11.69
2023-03-18T08:48:47.265Z,11.82
2023-03-18T08:51:14.756Z,11.84
2023-03-18T08:53:41.480Z,11.99
2023-03-18T08:56:08.356Z,12.06
2023-03-18T08:58:35.205Z,12.17
2023-03-18T09:01:05.502Z,12.07
2023-03-18T09:03:33.827Z,12.19
2023-03-18T09:06:01.166Z,12.21
2023-03-18T09:08:30.814Z,12.26
2023-03-18T09:10:58.408Z,12.39
2023-03-18T09:13:26.147Z,12.36
2023-03-18T09:15:53.103Z,12.36
2023-03-18T09:18:20.110Z,12.52
2023-03-18T09:20:46.803Z,12.50
2023-03-18T09:23:14.555Z,12.59
2023-03-18T09:25:44.866Z,12.59
2023-03-18T09:28:11.524Z,12.65
2023-03-18T09:30:39.121Z,12.69
2023-03-18T09:33:07.050Z,12.74
2023-03-18T09:35:35.382Z,12.91
2023-03-18T09:38:02.518Z,12.90
2023-03-18T09:40:32.750Z,13.05
2023-03-18T09:43:23.039Z,13.07
2023-03-18T09:46:05.151Z,13.14
2023-03-18T09:48:31.898Z,13.29
2023-03-18T09:51:10.273Z,13.39
2023-03-18T09:54:08.770Z,13.33
2023-03-18T09:56:36.868Z,13.59
2023-03-18T09:59:21.646Z,13.49
2023-03-18T10:01:54.417Z,13.52
2023-03-18T10:04:27.991Z,13.60
2023-03-18T10:07:04.238Z,13.62
2023-03-18T10:09:44.650Z,13.75
2023-03-18T10:12:35.754Z,13.74
2023-03-18T10:15:11.283Z,13.81
2023-03-18T10:17:42.676Z,13.86
2023-03-18T10:20:37.745Z,14.17
2023-03-18T10:23:27.459Z,14.07
2023-03-18T10:25:58.057Z,14.07
2023-03-18T10:28:41.743Z,14.41
2023-03-18T10:31:53.053Z,14.27
2023-03-18T10:34:23.481Z,14.14
2023-03-18T10:36:55.674Z,14.36
2023-03-18T10:39:26.019Z,14.51
2023-03-18T10:41:54.428Z,14.57
2023-03-18T10:44:27.054Z,14.43
2023-03-18T10:47:19.922Z,14.46
2023-03-18T10:50:12.018Z,14.45
2023-03-18T10:52:47.251Z,14.57
2023-03-18T10:55:17.773Z,14.89
2023-03-18T10:57:44.596Z,15.11
2023-03-18T11:00:34.502Z,15.25
2023-03-18T11:03:04.283Z,15.11
2023-03-18T11:05:35.773Z,15.24
2023-03-18T11:08:05.607Z,15.16
2023-03-18T11:10:36.092Z,15.19
2023-03-18T11:13:03.476Z,15.18
2023-03-18T11:15:39.828Z,15.22
2023-03-18T11:18:18.338Z,15.34
2023-03-18T11:20:59.401Z,15.48
2023-03-18T11:23:48.575Z,15.65
2023-03-18T11:26:22.185Z,15.62
2023-03-18T11:28:48.885Z,15.75
2023-03-18T11:31:18.909Z,15.65
2023-03-18T11:33:45.748Z,15.63
2023-03-18T11:36:22.936Z,15.93
2023-03-18T11:39:03.914Z,16.02
2023-03-18T11:41:30.818Z,16.35
2023-03-18T11:44:03.512Z,16.64
2023-03-18T11:46:43.507Z,16.85
2023-03-18T11:49:15.542Z,16.82
2023-03-18T11:51:44.738Z,16.60
2023-03-18T11:54:11.263Z,16.86
2023-03-18T11:56:58.699Z,17.44
2023-03-18T11:59:52.868Z,17.22
2023-03-18T12:02:19.516Z,17.68
2023-03-18T12:04:54.897Z,17.55
2023-03-18T12:07:40.665Z,17.57
2023-03-18T12:10:26.294Z,17.66
2023-03-18T12:13:05.204Z,17.78
2023-03-18T12:15:53.193Z,17.89
2023-03-18T12:18:29.109Z,18.15
2023-03-18T12:21:02.700Z,18.04
2023-03-18T12:23:40.007Z,18.02
2023-03-18T12:26:11.693Z,18.14
2023-03-18T12:28:38.278Z,18.30
2023-03-18T12:31:14.271Z,18.29
2023-03-18T12:33:50.964Z,18.22
2023-03-18T12:36:20.477Z,18.44
2023-03-18T12:39:08.826Z,18.65
2023-03-18T12:41:46.186Z,19.06
2023-03-18T12:44:38.971Z,19.17
2023-03-18T12:47:15.442Z,19.02
2023-03-18T12:49:49.458Z,18.88
2023-03-18T12:52:38.080Z,19.19
2023-03-18T12:55:11.395Z,19.13
2023-03-18T12:57:48.788Z,18.82
2023-03-18T13:00:37.310Z,18.94
2023-03-18T13:03:25.112Z,19.34
2023-03-18T13:05:58.446Z,19.78
2023-03-18T13:08:54.367Z,19.44
2023-03-18T13:11:54.817Z,20.13
2023-03-18T13:14:31.469Z,20.49
2023-03-18T13:16:59.266Z,20.92
2023-03-18T13:19:25.989Z,20.06
2023-03-18T13:22:03.923Z,20.34
2023-03-18T13:24:39.855Z,20.89
2023-03-18T13:27:19.752Z,21.00
2023-03-18T13:30:17.622Z,20.83
2023-03-18T13:32:53.294Z,20.83
2023-03-18T13:35:22.641Z,21.48
2023-03-18T13:38:14.601Z,21.93
2023-03-18T13:40:50.891Z,20.46
2023-03-18T13:43:21.168Z,21.37
2023-03-18T13:45:53.657Z,22.05
2023-03-18T13:48:33.767Z,22.48
2023-03-18T13:51:34.464Z,21.71
2023-03-18T13:54:08.784Z,20.94
2023-03-18T13:56:42.872Z,21.12
2023-03-18T13:59:34.412Z,21.63
2023-03-18T14:02:55.752Z,21.80
2023-03-18T14:05:42.556Z,20.59
2023-03-18T14:08:42.354Z,19.72
2023-03-18T14:11:19.715Z,20.01
2023-03-18T14:13:55.463Z,20.60
2023-03-18T14:16:30.036Z,21.09
2023-03-18T14:19:00.139Z,21.34
2023-03-18T14:21:29.450Z,20.99
2023-03-18T14:24:07.585Z,19.83
2023-03-18T14:26:34.666Z,20.04
2023-03-18T14:29:07.298Z,20.83
2023-03-18T14:31:40.045Z,20.49
2023-03-18T14:34:19.271Z,19.93
2023-03-18T14:36:55.659Z,19.74
2023-03-18T14:39:28.190Z,19.99
2023-03-18T14:41:58.154Z,20.38
2023-03-18T14:44:36.121Z,20.69
2023-03-18T14:47:35.604Z,20.90
2023-03-18T14:50:14.500Z,20.96
2023-03-18T14:52:47.999Z,21.37
2023-03-18T14:55:21.542Z,21.52
2023-03-18T14:57:48.209Z,21.45
2023-03-18T15:00:21.747Z,21.14
2023-03-18T15:03:00.702Z,20.92
2023-03-18T15:05:34.939Z,20.08
2023-03-18T15:08:02.557Z,19.87
2023-03-18T15:10:31.744Z,20.23
2023-03-18T15:13:04.616Z,20.02
2023-03-18T15:15:32.282Z,19.15
2023-03-18T15:18:16.862Z,19.26
2023-03-18T15:20:44.640Z,19.17
2023-03-18T15:23:14.727Z,19.02
2023-03-18T15:25:44.560Z,19.25
2023-03-18T15:28:19.469Z,18.64
2023-03-18T15:30:55.769Z,18.82
2023-03-18T15:33:26.164Z,18.90
2023-03-18T15:36:03.241Z,18.74
2023-03-18T15:38:31.646Z,18.57
2023-03-18T15:41:10.348Z,18.69
2023-03-18T15:43:46.047Z,18.74
2023-03-18T15:46:19.468Z,18.45
2023-03-18T15:48:54.608Z,18.39
2023-03-18T15:51:38.623Z,18.37
2023-03-18T15:54:14.929Z,18.41
2023-03-18T15:56:48.807Z,18.41
2023-03-18T15:59:24.330Z,18.33
2023-03-18T16:01:50.980Z,18.23
2023-03-18T16:04:18.302Z,18.23
2023-03-18T16:06:45.008Z,18.29
2023-03-18T16:09:20.146Z,18.22
2023-03-18T16:11:54.382Z,17.97
2023-03-18T16:14:28.662Z,17.79
2023-03-18T16:16:55.345Z,17.87
2023-03-18T16:19:25.406Z,17.92
2023-03-18T16:21:53.092Z,17.92
2023-03-18T16:24:20.130Z,17.79
2023-03-18T16:26:47.024Z,17.67
2023-03-18T16:29:33.755Z,17.71
2023-03-18T16:32:01.903Z,17.55
2023-03-18T16:34:28.802Z,17.57
2023-03-18T16:36:56.152Z,17.49
2023-03-18T16:39:25.031Z,17.22
2023-03-18T16:41:52.716Z,17.13
2023-03-18T16:44:22.264Z,17.10
2023-03-18T16:46:53.815Z,16.98
2023-03-18T16:49:24.058Z,17.02
2023-03-18T16:51:51.710Z,16.98
2023-03-18T16:54:21.056Z,16.87
2023-03-18T16:56:48.980Z,16.64
2023-03-18T16:59:15.822Z,16.62
2023-03-18T17:01:43.970Z,16.63
2023-03-18T17:04:30.671Z,16.53
2023-03-18T17:06:59.819Z,16.39
2023-03-18T17:09:26.937Z,16.28
2023-03-18T17:12:00.537Z,16.26
2023-03-18T17:14:34.768Z,16.20
2023-03-18T17:17:05.268Z,16.09
2023-03-18T17:19:31.903Z,15.96
2023-03-18T17:21:58.547Z,15.82
2023-03-18T17:24:25.230Z,15.68
2023-03-18T17:26:52.725Z,15.54
2023-03-18T17:29:24.562Z,15.41
2023-03-18T17:31:53.693Z,15.24
2023-03-18T17:34:21.443Z,15.12
2023-03-18T17:36:48.690Z,15.04
2023-03-18T17:39:15.772Z,14.84
2023-03-18T17:41:42.827Z,14.69
2023-03-18T17:44:30.164Z,14.60
2023-03-18T17:46:57.638Z,14.48
2023-03-18T17:49:26.522Z,14.35
2023-03-18T17:51:56.652Z,14.22
2023-03-18T17:54:27.229Z,14.00
2023-03-18T17:56:54.068Z,13.79
2023-03-18T17:59:21.076Z,13.77
2023-03-18T18:01:50.386Z,13.68
2023-03-18T18:04:18.750Z,13.48
2023-03-18T18:06:47.979Z,13.40
2023-03-18T18:09:15.888Z,13.36
2023-03-18T18:11:45.713Z,13.29
2023-03-18T18:14:24.621Z,13.18
2023-03-18T18:16:53.686Z,13.11
2023-03-18T18:19:20.665Z,13.03
2023-03-18T18:21:49.204Z,12.96
2023-03-18T18:24:25.881Z,12.83
2023-03-18T18:26:52.771Z,12.75
2023-03-18T18:29:24.751Z,12.55
2023-03-18T18:31:52.365Z,12.39
2023-03-18T18:34:21.314Z,12.32
2023-03-18T18:36:48.726Z,12.22
2023-03-18T18:39:15.438Z,12.19
2023-03-18T18:41:42.124Z,12.12
2023-03-18T18:44:08.827Z,12.05
2023-03-18T18:46:36.024Z,11.98
2023-03-18T18:49:03.354Z,11.87
2023-03-18T18:51:30.059Z,11.85
2023-03-18T18:53:56.708Z,11.74
2023-03-18T18:56:35.303Z,11.59
2023-03-18T18:59:07.527Z,11.50
2023-03-18T19:01:34.179Z,11.41
2023-03-18T19:04:02.720Z,11.33
2023-03-18T19:06:31.639Z,11.30
2023-03-18T19:09:00.396Z,11.22
2023-03-18T19:11:28.500Z,11.15
2023-03-18T19:14:15.331Z,11.11
2023-03-18T19:16:42.587Z,11.05
2023-03-18T19:19:21.297Z,10.98
2023-03-18T19:21:49.116Z,10.92
2023-03-18T19:24:33.360Z,10.84
2023-03-18T19:27:05.618Z,10.79
2023-03-18T19:29:35.539Z,10.78
2023-03-18T19:32:02.274Z,10.65
2023-03-18T19:34:32.293Z,10.63
2023-03-18T19:36:59.924Z,10.61
2023-03-18T19:39:28.138Z,10.61
2023-03-18T19:41:54.844Z,10.61
2023-03-18T19:44:24.206Z,10.56
2023-03-18T19:46:58.621Z,10.51
2023-03-18T19:49:35.742Z,10.48
2023-03-18T19:52:17.070Z,10.51
2023-03-18T19:54:43.935Z,10.57
2023-03-18T19:57:20.390Z,10.58
2023-03-18T19:59:49.191Z,10.57
2023-03-18T20:02:26.105Z,10.52
2023-03-18T20:04:58.081Z,10.51
2023-03-18T20:07:29.967Z,10.47
2023-03-18T20:09:56.800Z,10.48
2023-03-18T20:12:30.413Z,10.44
2023-03-18T20:14:57.008Z,10.44
2023-03-18T20:17:23.514Z,10.39
2023-03-18T20:19:50.601Z,10.37
2023-03-18T20:22:27.006Z,10.37
2023-03-18T20:24:54.633Z,10.37
2023-03-18T20:27:21.941Z,10.35
2023-03-18T20:29:48.699Z,10.33
2023-03-18T20:32:15.349Z,10.31
2023-03-18T20:34:43.863Z,10.31
2023-03-18T20:37:29.947Z,10.29
2023-03-18T20:39:56.720Z,10.28
2023-03-18T20:42:23.600Z,10.31
2023-03-18T20:44:50.194Z,10.30
2023-03-18T20:47:16.890Z,10.31
2023-03-18T20:49:47.666Z,10.30
2023-03-18T20:52:26.023Z,10.31
2023-03-18T20:54:53.162Z,10.28
2023-03-18T20:57:19.969Z,10.28
2023-03-18T20:59:47.301Z,10.28
2023-03-18T21:02:29.968Z,10.25
2023-03-18T21:05:01.758Z,10.29
2023-03-18T21:07:29.113Z,10.30
2023-03-18T21:09:56.050Z,10.28
2023-03-18T21:12:23.275Z,10.25
2023-03-18T21:14:50.128Z,10.26
2023-03-18T21:17:24.848Z,10.27
2023-03-18T21:19:53.650Z,10.25
2023-03-18T21:22:23.361Z,10.21
2023-03-18T21:24:50.520Z,10.20
2023-03-18T21:27:22.371Z,10.18
2023-03-18T21:29:51.199Z,10.18
2023-03-18T21:32:29.805Z,10.15
2023-03-18T21:34:56.903Z,10.13
2023-03-18T21:37:26.540Z,10.12
2023-03-18T21:39:53.756Z,10.11
2023-03-18T21:42:24.390Z,10.11
2023-03-18T21:44:51.909Z,10.09
2023-03-18T21:47:20.947Z,10.08
2023-03-18T21:49:49.026Z,10.06
2023-03-18T21:52:34.473Z,10.05
2023-03-18T21:55:02.090Z,10.04
2023-03-18T21:57:29.222Z,10.04
2023-03-18T21:59:56.178Z,10.01
2023-03-18T22:02:30.736Z,10.01
2023-03-18T22:05:02.818Z,10.03
2023-03-18T22:07:31.677Z,10.01
2023-03-18T22:09:58.864Z,9.99
2023-03-18T22:12:31.078Z,9.97
2023-03-18T22:14:58.277Z,9.94
2023-03-18T22:17:27.550Z,9.95
2023-03-18T22:19:56.081Z,9.92
2023-03-18T22:22:25.679Z,9.90
2023-03-18T22:24:52.552Z,9.89
2023-03-18T22:27:25.357Z,9.78
2023-03-18T22:29:53.404Z,9.77
2023-03-18T22:32:38.238Z,9.68
2023-03-18T22:35:18.788Z,9.73
2023-03-18T22:37:45.971Z,9.69
2023-03-18T22:40:23.761Z,9.62
2023-03-18T22:42:53.080Z,9.56
2023-03-18T22:45:21.775Z,9.48
2023-03-18T22:47:50.432Z,9.43
2023-03-18T22:50:17.983Z,9.38
2023-03-18T22:52:46.032Z,9.37
2023-03-18T22:55:28.534Z,9.33
2023-03-18T22:57:55.215Z,9.32
2023-03-18T23:00:45.300Z,9.26
2023-03-18T23:03:26.673Z,9.29
2023-03-18T23:05:55.525Z,9.31
2023-03-18T23:08:22.672Z,9.28
2023-03-18T23:10:51.200Z,9.25
2023-03-18T23:13:26.053Z,9.20
2023-03-18T23:15:53.179Z,9.17
2023-03-18T23:18:40.577Z,9.11
2023-03-18T23:21:07.225Z,9.03
2023-03-18T23:23:33.825Z,9.00
2023-03-18T23:26:00.615Z,8.94
2023-03-18T23:28:27.316Z,8.81
2023-03-18T23:30:54.059Z,8.77
2023-03-18T23:33:20.896Z,8.73
2023-03-18T23:35:48.783Z,8.71
2023-03-18T23:38:16.125Z,8.71
2023-03-18T23:40:42.754Z,8.70
2023-03-18T23:43:09.564Z,8.65
2023-03-18T23:45:38.080Z,8.63
2023-03-18T23:48:05.715Z,8.60
2023-03-18T23:50:32.913Z,8.58
2023-03-18T23:53:00.202Z,8.57
2023-03-18T23:55:45.634Z,8.50
2023-03-18T23:58:12.300Z,8.50
